Jefferson, North Carolina
Current Conditions -  °F | °C
As of 8:15 PM on Friday 24 Oct 2014 (Local Time) from KGEV Reporting Station
Clear Clear  
Wind Chill: 53°   Ceiling: Unl
Heat Index: 53°   Visibility: 10mi
Dew Point: 28°   Wind: 10mph
Humidity: 39%   Direction: 290°WNW
Pressure: 30.06"   Gusts: NA
Location:  36.42°N, 81.47°W
Report Text: KGEV 250015Z AUTO 29009KT 10SM CLR 12/M02 A3006 RMK AO2 T01161021
Loading
Personal Weather Stations






























Interactive Weather Map
Tropical Storm Tracking
New forecast layout! Learn more

10-Day Weather Forecast

Advertisements
Track Severe Weather on mobile